createdAt,value
2022-11-30T00:01:51.407Z,42.03
2022-11-30T00:04:19.209Z,42.40
2022-11-30T00:06:46.621Z,35.60
2022-11-30T00:09:15.339Z,40.42
2022-11-30T00:11:42.804Z,39.22
2022-11-30T00:14:10.889Z,40.40
2022-11-30T00:16:38.531Z,41.20
2022-11-30T00:19:06.633Z,38.47
2022-11-30T00:21:34.553Z,39.63
2022-11-30T00:24:02.130Z,35.95
2022-11-30T00:26:29.928Z,40.15
2022-11-30T00:28:57.356Z,39.65
2022-11-30T00:31:25.246Z,40.58
2022-11-30T00:33:52.729Z,40.83
2022-11-30T00:36:22.218Z,39.85
2022-11-30T00:38:50.554Z,39.20
2022-11-30T00:41:18.659Z,41.22
2022-11-30T00:43:46.262Z,38.55
2022-11-30T00:46:13.853Z,41.58
2022-11-30T00:48:41.760Z,38.42
2022-11-30T00:51:12.213Z,47.15
2022-11-30T00:56:08.530Z,41.03
2022-11-30T00:58:36.341Z,39.20
2022-11-30T01:03:41.851Z,38.30
2022-11-30T01:06:10.489Z,42.15
2022-11-30T01:08:38.226Z,36.58
2022-11-30T01:11:12.908Z,37.10
2022-11-30T01:13:41.065Z,39.80
2022-11-30T01:16:13.232Z,40.65
2022-11-30T01:18:40.918Z,44.83
2022-11-30T01:21:13.363Z,40.17
2022-11-30T01:23:41.540Z,44.05
2022-11-30T01:26:09.469Z,41.67
2022-11-30T01:28:37.480Z,42.95
2022-11-30T01:31:08.950Z,36.38
2022-11-30T01:33:40.134Z,45.58
2022-11-30T01:36:08.014Z,44.10
2022-11-30T01:38:37.545Z,44.92
2022-11-30T01:41:06.208Z,38.85
2022-11-30T01:43:53.728Z,47.63
2022-11-30T01:46:30.280Z,42.67
2022-11-30T01:49:02.256Z,41.70
2022-11-30T01:51:33.919Z,45.97
2022-11-30T01:54:07.137Z,40.88
2022-11-30T01:56:35.009Z,43.40
2022-11-30T01:59:03.154Z,38.63
2022-11-30T02:01:31.413Z,44.70
2022-11-30T02:04:09.853Z,45.15
2022-11-30T02:06:37.635Z,43.00
2022-11-30T02:09:05.283Z,45.17
2022-11-30T02:11:34.670Z,44.17
2022-11-30T02:14:15.237Z,43.25
2022-11-30T02:19:29.257Z,41.97
2022-11-30T02:22:03.465Z,42.30
2022-11-30T02:24:46.727Z,39.17
2022-11-30T02:27:14.512Z,40.13
2022-11-30T02:29:44.993Z,45.30
2022-11-30T02:32:30.456Z,42.85
2022-11-30T02:34:58.189Z,43.15
2022-11-30T02:37:26.543Z,43.25
2022-11-30T02:39:54.369Z,40.67
2022-11-30T02:42:21.887Z,42.60
2022-11-30T02:44:50.447Z,38.95
2022-11-30T02:47:54.061Z,44.88
2022-11-30T02:50:39.064Z,38.88
2022-11-30T02:53:07.513Z,41.42
2022-11-30T02:55:35.171Z,39.28
2022-11-30T02:58:06.429Z,38.88
2022-11-30T03:00:34.236Z,39.42
2022-11-30T03:03:02.765Z,46.15
2022-11-30T03:05:30.562Z,41.42
2022-11-30T03:07:59.000Z,43.47
2022-11-30T03:10:26.756Z,42.17
2022-11-30T03:12:58.587Z,40.25
2022-11-30T03:15:26.616Z,41.05
2022-11-30T03:17:54.296Z,40.35
2022-11-30T03:20:21.725Z,36.88
2022-11-30T03:22:49.464Z,38.88
2022-11-30T03:25:16.900Z,36.75
2022-11-30T03:27:44.628Z,39.72
2022-11-30T03:30:12.421Z,40.15
2022-11-30T03:32:39.954Z,39.30
2022-11-30T03:35:08.259Z,36.85
2022-11-30T03:37:35.887Z,38.72
2022-11-30T03:40:05.466Z,45.33
2022-11-30T03:42:34.122Z,38.88
2022-11-30T03:45:02.826Z,42.55
2022-11-30T03:47:30.378Z,43.20
2022-11-30T03:49:58.308Z,41.10
2022-11-30T03:52:25.747Z,41.90
2022-11-30T03:54:53.100Z,37.67
2022-11-30T03:57:20.900Z,35.58
2022-11-30T03:59:48.434Z,37.85
2022-11-30T04:02:16.327Z,43.28
2022-11-30T04:04:44.083Z,40.13
2022-11-30T04:07:11.761Z,36.92
2022-11-30T04:09:39.355Z,41.35
2022-11-30T04:12:07.087Z,38.10
2022-11-30T04:14:39.953Z,39.22
2022-11-30T04:17:07.640Z,42.53
2022-11-30T04:19:35.223Z,41.55
2022-11-30T04:22:06.783Z,36.72
2022-11-30T04:24:34.363Z,42.08
2022-11-30T04:27:05.149Z,41.38
2022-11-30T04:29:33.773Z,39.15
2022-11-30T04:32:02.091Z,41.55
2022-11-30T04:34:32.143Z,40.15
2022-11-30T04:37:00.619Z,41.43
2022-11-30T04:39:28.458Z,37.78
2022-11-30T04:41:56.638Z,38.70
2022-11-30T04:44:24.282Z,39.05
2022-11-30T04:46:51.897Z,40.33
2022-11-30T04:49:20.108Z,39.58
2022-11-30T04:51:47.952Z,39.45
2022-11-30T04:54:15.661Z,37.90
2022-11-30T04:56:43.316Z,37.35
2022-11-30T04:59:10.927Z,36.53
2022-11-30T05:01:38.790Z,38.90
2022-11-30T05:04:06.655Z,40.63
2022-11-30T05:06:35.468Z,34.22
2022-11-30T05:09:04.116Z,36.15
2022-11-30T05:11:31.952Z,34.45
2022-11-30T05:13:59.792Z,35.38
2022-11-30T05:16:27.287Z,38.35
2022-11-30T05:18:54.997Z,39.45
2022-11-30T05:21:22.544Z,38.75
2022-11-30T05:23:51.766Z,36.47
2022-11-30T05:26:19.389Z,36.22
2022-11-30T05:28:47.052Z,34.72
2022-11-30T05:31:14.599Z,31.88
2022-11-30T05:33:42.392Z,31.05
2022-11-30T05:36:10.799Z,35.00
2022-11-30T05:38:38.656Z,33.38
2022-11-30T05:41:06.227Z,29.70
2022-11-30T05:43:35.002Z,29.95
2022-11-30T05:46:05.008Z,33.03
2022-11-30T05:48:33.658Z,31.65
2022-11-30T05:51:10.160Z,31.67
2022-11-30T05:53:38.487Z,33.55
2022-11-30T05:56:07.351Z,34.03
2022-11-30T05:58:36.230Z,28.73
2022-11-30T06:01:04.681Z,34.17
2022-11-30T06:03:33.992Z,34.58
2022-11-30T06:06:03.670Z,34.25
2022-11-30T06:08:32.976Z,34.20
2022-11-30T06:11:09.756Z,36.85
2022-11-30T06:13:37.909Z,38.10
2022-11-30T06:16:08.917Z,36.75
2022-11-30T06:18:38.766Z,35.33
2022-11-30T06:21:08.352Z,43.72
2022-11-30T06:23:36.352Z,28.73
2022-11-30T06:26:13.689Z,27.48
2022-11-30T06:28:46.609Z,26.48
2022-11-30T06:31:15.990Z,29.70
2022-11-30T06:33:43.981Z,18.20
2022-11-30T06:36:14.865Z,16.80
2022-11-30T06:38:42.593Z,12.23
2022-11-30T06:41:12.597Z,12.95
2022-11-30T06:43:40.807Z,12.02
2022-11-30T06:46:08.595Z,19.15
2022-11-30T06:48:36.845Z,25.40
2022-11-30T06:51:11.552Z,25.40
2022-11-30T06:53:44.106Z,26.23
2022-11-30T06:56:12.364Z,16.77
2022-11-30T06:58:40.647Z,15.23
2022-11-30T07:01:09.680Z,13.45
2022-11-30T07:03:37.600Z,10.95
2022-11-30T07:06:13.296Z,12.15
2022-11-30T07:08:41.812Z,9.10
2022-11-30T07:11:10.399Z,14.52
2022-11-30T07:13:38.301Z,18.00
2022-11-30T07:16:06.910Z,21.08
2022-11-30T07:18:35.444Z,16.58
2022-11-30T07:21:05.560Z,17.00
2022-11-30T07:23:56.561Z,23.55
2022-11-30T07:26:24.907Z,20.90
2022-11-30T07:28:58.696Z,16.38
2022-11-30T07:31:27.874Z,20.40
2022-11-30T07:33:55.857Z,18.52
2022-11-30T07:36:26.294Z,19.70
2022-11-30T07:38:54.216Z,14.93
2022-11-30T07:41:22.191Z,18.60
2022-11-30T07:43:50.341Z,16.83
2022-11-30T07:46:21.211Z,11.93
2022-11-30T07:48:48.940Z,12.60
2022-11-30T07:51:18.357Z,14.13
2022-11-30T07:53:46.059Z,12.95
2022-11-30T07:56:15.401Z,13.30
2022-11-30T07:58:43.477Z,18.65
2022-11-30T08:01:12.701Z,17.38
2022-11-30T08:03:40.555Z,20.40
2022-11-30T08:06:09.716Z,19.60
2022-11-30T08:08:41.404Z,19.45
2022-11-30T08:11:10.814Z,17.63
2022-11-30T08:13:38.315Z,21.10
2022-11-30T08:16:10.263Z,18.27
2022-11-30T08:18:38.619Z,20.02
2022-11-30T08:21:07.290Z,18.77
2022-11-30T08:23:36.387Z,18.25
2022-11-30T08:26:08.840Z,17.90
2022-11-30T08:28:37.297Z,17.45
2022-11-30T08:31:12.126Z,22.27
2022-11-30T08:33:40.189Z,24.92
2022-11-30T08:36:09.418Z,20.58
2022-11-30T08:38:37.677Z,21.25
2022-11-30T08:41:06.451Z,21.00
2022-11-30T08:43:36.206Z,26.27
2022-11-30T08:46:27.374Z,21.10
2022-11-30T08:49:12.580Z,24.10
2022-11-30T08:52:14.646Z,25.25
2022-11-30T08:54:30.711Z,30.23
2022-11-30T08:56:59.619Z,26.20
2022-11-30T08:59:27.359Z,26.67
2022-11-30T09:01:55.176Z,30.30
2022-11-30T09:04:22.953Z,27.73
2022-11-30T09:06:50.612Z,28.10
2022-11-30T09:09:18.569Z,26.65
2022-11-30T09:11:46.371Z,25.67
2022-11-30T09:14:14.362Z,24.23
2022-11-30T09:16:42.372Z,24.27
2022-11-30T09:19:10.707Z,26.48
2022-11-30T09:21:38.776Z,31.98
2022-11-30T09:24:07.088Z,28.45
2022-11-30T09:26:34.684Z,35.25
2022-11-30T09:29:06.133Z,29.17
2022-11-30T09:31:35.164Z,39.55
2022-11-30T09:34:03.531Z,47.95
2022-11-30T09:36:32.201Z,44.70
2022-11-30T09:39:00.035Z,45.83
2022-11-30T09:41:46.698Z,52.70
2022-11-30T09:44:33.862Z,46.20
2022-11-30T09:47:20.540Z,45.90
2022-11-30T09:49:49.919Z,46.83
2022-11-30T09:52:50.637Z,61.63
2022-11-30T09:55:28.842Z,63.13
2022-11-30T09:57:59.264Z,67.47
2022-11-30T10:02:55.825Z,62.85
2022-11-30T10:05:27.786Z,73.45
2022-11-30T10:08:16.748Z,70.68
2022-11-30T10:10:46.741Z,74.47
2022-11-30T10:13:24.401Z,79.95
2022-11-30T10:16:20.979Z,74.93
2022-11-30T10:18:48.747Z,75.72
2022-11-30T10:21:20.203Z,74.05
2022-11-30T10:24:04.511Z,74.07
2022-11-30T10:26:38.272Z,75.55
2022-11-30T10:29:27.420Z,73.65
2022-11-30T10:31:58.536Z,72.75
2022-11-30T10:34:34.771Z,75.10
2022-11-30T10:37:12.386Z,67.55
2022-11-30T10:40:02.642Z,65.68
2022-11-30T10:42:35.882Z,62.42
2022-11-30T10:45:09.678Z,63.75
2022-11-30T10:47:39.041Z,64.10
2022-11-30T10:50:07.434Z,59.25
2022-11-30T10:52:49.295Z,67.07
2022-11-30T10:55:21.044Z,56.88
2022-11-30T10:57:52.401Z,60.80
2022-11-30T11:00:20.494Z,59.08
2022-11-30T11:02:50.823Z,59.75
2022-11-30T11:07:51.961Z,54.55
2022-11-30T11:10:29.229Z,49.60
2022-11-30T11:13:05.214Z,46.78
2022-11-30T11:15:34.259Z,42.40
2022-11-30T11:18:17.528Z,40.47
2022-11-30T11:20:45.819Z,40.90
2022-11-30T11:23:34.442Z,39.22
2022-11-30T11:26:03.637Z,36.38
2022-11-30T11:28:32.883Z,39.38
2022-11-30T11:31:01.006Z,33.22
2022-11-30T11:33:30.418Z,28.95
2022-11-30T11:36:07.719Z,31.58
2022-11-30T11:38:43.788Z,27.08
2022-11-30T11:41:20.395Z,32.33
2022-11-30T11:44:06.947Z,24.95
2022-11-30T11:46:39.612Z,26.13
2022-11-30T11:49:21.616Z,26.25
2022-11-30T11:52:00.128Z,35.33
2022-11-30T11:54:38.985Z,27.40
2022-11-30T11:57:09.994Z,23.55
2022-11-30T11:59:41.557Z,22.08
2022-11-30T12:02:09.338Z,32.33
2022-11-30T12:04:41.663Z,23.13
2022-11-30T12:07:22.946Z,20.75
2022-11-30T12:10:43.488Z,17.27
2022-11-30T12:13:02.171Z,20.13
2022-11-30T12:15:33.932Z,18.35
2022-11-30T12:18:07.800Z,27.23
2022-11-30T12:20:55.098Z,19.33
2022-11-30T12:23:35.222Z,20.10
2022-11-30T12:26:13.404Z,19.48
2022-11-30T12:28:41.090Z,19.95
2022-11-30T12:31:16.383Z,21.38
2022-11-30T12:33:47.708Z,23.00
2022-11-30T12:36:34.152Z,22.48
2022-11-30T12:39:28.726Z,22.70
2022-11-30T12:42:01.004Z,27.08
2022-11-30T12:44:42.865Z,28.98
2022-11-30T12:47:21.217Z,24.73
2022-11-30T12:50:02.386Z,24.92
2022-11-30T12:52:49.382Z,27.33
2022-11-30T12:55:38.016Z,28.65
2022-11-30T12:58:14.510Z,24.65
2022-11-30T13:00:57.570Z,25.63
2022-11-30T13:03:42.699Z,25.48
2022-11-30T13:06:15.888Z,25.33
2022-11-30T13:08:50.760Z,29.75
2022-11-30T13:11:21.163Z,27.25
2022-11-30T13:16:18.876Z,24.77
2022-11-30T13:18:48.193Z,27.40
2022-11-30T13:21:34.548Z,27.15
2022-11-30T13:24:29.192Z,26.33
2022-11-30T13:26:59.930Z,27.38
2022-11-30T13:29:39.744Z,27.52
2022-11-30T13:32:34.266Z,25.00
2022-11-30T13:35:25.669Z,26.08
2022-11-30T13:38:35.155Z,32.00
2022-11-30T13:40:57.305Z,28.27
2022-11-30T13:43:26.006Z,33.43
2022-11-30T13:46:24.194Z,29.90
2022-11-30T13:49:15.700Z,29.75
2022-11-30T13:51:43.406Z,31.92
2022-11-30T13:54:29.841Z,27.55
2022-11-30T13:56:57.394Z,28.80
2022-11-30T13:59:24.766Z,30.55
2022-11-30T14:01:55.604Z,27.45
2022-11-30T14:07:01.034Z,31.65
2022-11-30T14:09:42.063Z,30.85
2022-11-30T14:12:36.715Z,28.92
2022-11-30T14:15:24.362Z,23.75
2022-11-30T14:17:56.615Z,26.25
2022-11-30T14:20:25.634Z,28.27
2022-11-30T14:22:53.707Z,29.42
2022-11-30T14:25:21.971Z,31.98
2022-11-30T14:27:51.843Z,30.85
2022-11-30T14:30:21.171Z,32.38
2022-11-30T14:33:00.741Z,26.00
2022-11-30T14:35:30.869Z,29.52
2022-11-30T14:37:59.134Z,27.42
2022-11-30T14:40:29.929Z,28.13
2022-11-30T14:42:58.643Z,31.38
2022-11-30T14:45:28.535Z,28.55
2022-11-30T14:48:10.872Z,23.58
2022-11-30T14:50:43.120Z,28.15
2022-11-30T14:53:16.916Z,27.40
2022-11-30T14:55:52.304Z,25.58
2022-11-30T14:58:39.852Z,29.73
2022-11-30T15:01:23.804Z,29.27
2022-11-30T15:03:53.019Z,25.98
2022-11-30T15:06:23.595Z,24.55
2022-11-30T15:08:56.283Z,23.00
2022-11-30T15:11:24.037Z,23.48
2022-11-30T15:13:54.566Z,25.58
2022-11-30T15:18:51.721Z,24.65
2022-11-30T15:21:27.136Z,25.45
2022-11-30T15:23:58.917Z,31.48
2022-11-30T15:26:29.528Z,24.33
2022-11-30T15:28:58.655Z,26.98
2022-11-30T15:31:29.263Z,25.45
2022-11-30T15:36:32.841Z,25.92
2022-11-30T15:39:03.433Z,28.17
2022-11-30T15:41:34.175Z,28.35
2022-11-30T15:44:03.823Z,28.00
2022-11-30T15:46:32.457Z,30.50
2022-11-30T15:49:18.668Z,26.77
2022-11-30T15:51:48.665Z,30.05
2022-11-30T15:54:18.080Z,32.53
2022-11-30T15:56:56.691Z,29.95
2022-11-30T15:59:25.492Z,31.02
2022-11-30T16:02:14.737Z,31.33
2022-11-30T16:04:58.697Z,31.00
2022-11-30T16:07:28.942Z,34.85
2022-11-30T16:10:07.740Z,31.00
2022-11-30T16:12:35.475Z,30.88
2022-11-30T16:15:17.171Z,33.08
2022-11-30T16:17:45.310Z,34.53
2022-11-30T16:20:13.979Z,33.47
2022-11-30T16:22:46.471Z,33.22
2022-11-30T16:25:15.459Z,32.55
2022-11-30T16:27:43.637Z,32.30
2022-11-30T16:30:15.391Z,34.85
2022-11-30T16:32:43.309Z,34.20
2022-11-30T16:35:14.230Z,34.72
2022-11-30T16:37:42.182Z,35.38
2022-11-30T16:40:10.030Z,39.08
2022-11-30T16:42:37.941Z,38.40
2022-11-30T16:45:05.880Z,35.45
2022-11-30T16:47:34.898Z,39.92
2022-11-30T16:50:03.708Z,38.13
2022-11-30T16:52:35.289Z,35.08
2022-11-30T16:55:04.249Z,37.70
2022-11-30T16:57:32.400Z,40.80
2022-11-30T17:00:00.109Z,34.47
2022-11-30T17:02:28.961Z,35.40
2022-11-30T17:05:00.512Z,34.30
2022-11-30T17:07:34.679Z,33.58
2022-11-30T17:10:06.189Z,32.78
2022-11-30T17:12:35.940Z,30.42
2022-11-30T17:15:05.380Z,32.17
2022-11-30T17:17:34.718Z,32.05
2022-11-30T17:20:03.430Z,30.40
2022-11-30T17:22:33.895Z,31.98
2022-11-30T17:25:05.065Z,33.38
2022-11-30T17:27:33.738Z,33.80
2022-11-30T17:30:05.407Z,32.58
2022-11-30T17:32:33.663Z,33.53
2022-11-30T17:35:02.391Z,30.73
2022-11-30T17:37:32.387Z,28.50
2022-11-30T17:40:00.775Z,30.25
2022-11-30T17:42:28.495Z,30.35
2022-11-30T17:44:56.229Z,32.13
2022-11-30T17:47:23.845Z,32.42
2022-11-30T17:49:51.725Z,29.45
2022-11-30T17:52:19.385Z,32.55
2022-11-30T17:54:47.356Z,30.63
2022-11-30T17:57:15.327Z,27.50
2022-11-30T17:59:43.168Z,29.60
2022-11-30T18:02:11.663Z,30.17
2022-11-30T18:04:40.833Z,30.40
2022-11-30T18:07:08.634Z,34.88
2022-11-30T18:09:42.347Z,32.40
2022-11-30T18:12:10.790Z,33.45
2022-11-30T18:14:40.561Z,31.90
2022-11-30T18:17:08.353Z,32.92
2022-11-30T18:19:36.189Z,39.60
2022-11-30T18:22:04.642Z,38.00
2022-11-30T18:24:33.460Z,35.15
2022-11-30T18:27:02.396Z,36.53
2022-11-30T18:29:30.276Z,33.53
2022-11-30T18:31:58.178Z,36.88
2022-11-30T18:34:28.991Z,38.67
2022-11-30T18:36:56.479Z,36.83
2022-11-30T18:39:24.010Z,38.00
2022-11-30T18:41:51.703Z,39.40
2022-11-30T18:44:19.594Z,38.55
2022-11-30T18:46:47.040Z,39.30
2022-11-30T18:49:15.124Z,38.45
2022-11-30T18:51:42.922Z,40.05
2022-11-30T18:54:12.310Z,39.67
2022-11-30T18:56:40.265Z,41.75
2022-11-30T18:59:10.394Z,38.15
2022-11-30T19:01:38.012Z,40.28
2022-11-30T19:04:09.330Z,42.15
2022-11-30T19:06:38.739Z,45.47
2022-11-30T19:09:08.708Z,44.08
2022-11-30T19:11:37.522Z,48.88
2022-11-30T19:14:08.908Z,50.78
2022-11-30T19:16:37.210Z,47.55
2022-11-30T19:19:06.830Z,48.92
2022-11-30T19:21:35.341Z,46.80
2022-11-30T19:24:04.033Z,44.20
2022-11-30T19:26:36.950Z,46.63
2022-11-30T19:29:08.610Z,42.40
2022-11-30T19:31:36.428Z,46.17
2022-11-30T19:34:12.039Z,49.75
2022-11-30T19:36:41.961Z,46.42
2022-11-30T19:39:09.858Z,53.63
2022-11-30T19:41:37.424Z,52.45
2022-11-30T19:44:05.386Z,46.45
2022-11-30T19:46:34.734Z,48.85
2022-11-30T19:49:03.334Z,49.00
2022-11-30T19:51:32.994Z,45.58
2022-11-30T19:54:02.347Z,49.03
2022-11-30T19:56:31.954Z,46.33
2022-11-30T19:59:04.488Z,52.97
2022-11-30T20:01:36.758Z,49.55
2022-11-30T20:04:05.323Z,47.15
2022-11-30T20:06:36.002Z,49.22
2022-11-30T20:09:07.474Z,51.30
2022-11-30T20:11:35.734Z,50.67
2022-11-30T20:14:04.944Z,45.95
2022-11-30T20:16:33.389Z,46.70
2022-11-30T20:19:03.967Z,53.80
2022-11-30T20:21:34.202Z,50.83
2022-11-30T20:24:04.433Z,47.88
2022-11-30T20:26:34.503Z,51.30
2022-11-30T20:29:05.544Z,52.95
2022-11-30T20:31:34.996Z,52.03
2022-11-30T20:34:03.806Z,51.75
2022-11-30T20:36:33.976Z,51.90
2022-11-30T20:39:03.249Z,52.67
2022-11-30T20:41:35.327Z,53.13
2022-11-30T20:44:04.655Z,51.13
2022-11-30T20:46:36.308Z,55.08
2022-11-30T20:49:05.696Z,61.65
2022-11-30T20:51:35.110Z,59.28
2022-11-30T20:54:05.788Z,58.30
2022-11-30T20:56:37.224Z,54.83
2022-11-30T20:59:06.684Z,57.80
2022-11-30T21:01:35.748Z,58.00
2022-11-30T21:04:04.843Z,65.13
2022-11-30T21:06:33.909Z,63.35
2022-11-30T21:09:03.565Z,69.97
2022-11-30T21:11:32.685Z,67.72
2022-11-30T21:14:01.007Z,66.80
2022-11-30T21:16:30.057Z,60.33
2022-11-30T21:18:58.904Z,66.05
2022-11-30T21:21:28.509Z,71.47
2022-11-30T21:23:58.838Z,65.90
2022-11-30T21:26:28.298Z,71.28
2022-11-30T21:28:59.653Z,64.85
2022-11-30T21:31:27.624Z,67.72
2022-11-30T21:33:55.778Z,70.75
2022-11-30T21:36:23.623Z,68.38
2022-11-30T21:39:04.954Z,68.20
2022-11-30T21:41:39.087Z,66.95
2022-11-30T21:44:08.226Z,76.72
2022-11-30T21:46:36.827Z,66.90
2022-11-30T21:49:05.114Z,70.25
2022-11-30T21:51:34.004Z,79.10
2022-11-30T21:54:03.756Z,75.78
2022-11-30T21:56:38.136Z,72.05
2022-11-30T21:59:07.477Z,73.75
2022-11-30T22:01:39.901Z,70.63
2022-11-30T22:04:08.499Z,66.90
2022-11-30T22:06:36.970Z,70.30
2022-11-30T22:09:08.396Z,66.32
2022-11-30T22:11:37.509Z,70.00
2022-11-30T22:14:05.532Z,70.20
2022-11-30T22:16:36.378Z,70.45
2022-11-30T22:19:05.256Z,73.35
2022-11-30T22:21:34.033Z,71.72
2022-11-30T22:24:05.509Z,72.97
2022-11-30T22:26:36.046Z,76.18
2022-11-30T22:29:15.767Z,78.70
2022-11-30T22:31:44.347Z,78.20
2022-11-30T22:34:12.225Z,80.13
2022-11-30T22:36:42.376Z,87.20
2022-11-30T22:39:20.481Z,82.95
2022-11-30T22:41:55.076Z,89.68
2022-11-30T22:44:23.906Z,91.22
2022-11-30T22:46:51.779Z,101.40
2022-11-30T22:49:21.487Z,100.22
2022-11-30T22:51:49.882Z,84.10
2022-11-30T22:54:17.899Z,81.40
2022-11-30T22:56:46.989Z,90.05
2022-11-30T22:59:15.780Z,85.10
2022-11-30T23:01:45.712Z,82.20
2022-11-30T23:04:14.738Z,80.03
2022-11-30T23:06:44.329Z,85.00
2022-11-30T23:09:13.290Z,82.17
2022-11-30T23:11:41.228Z,84.57
2022-11-30T23:14:09.981Z,93.18
2022-11-30T23:16:37.780Z,90.03
2022-11-30T23:19:06.096Z,86.03
2022-11-30T23:21:40.555Z,84.18
2022-11-30T23:24:10.895Z,84.72
2022-11-30T23:26:39.515Z,77.18
2022-11-30T23:29:08.952Z,85.13
2022-11-30T23:31:37.604Z,84.30
2022-11-30T23:34:06.389Z,84.25
2022-11-30T23:36:34.759Z,87.80
2022-11-30T23:39:07.492Z,82.80
2022-11-30T23:41:35.112Z,88.25
2022-11-30T23:44:05.748Z,90.97
2022-11-30T23:46:34.107Z,88.82
2022-11-30T23:49:03.365Z,91.88
2022-11-30T23:51:30.817Z,92.72
2022-11-30T23:53:58.385Z,90.40
2022-11-30T23:56:25.948Z,89.22
2022-11-30T23:58:54.100Z,92.97
